KBGE/BGE METAR and TAF weather

Enter ICAO airport designator
Station Type Date Time Source
KBGE METAR 2021/04/18 02:15 UTC NOAA

KBGE 180215Z AUTO 27005KT 5SM -RA BR OVC004 17/16 A2990 RMK AO2 T01670165


Station Type Date Time Source
KBGE Decoded METAR 2021/04/18 02:15 UTC NOAA

Bainbridge, Decatur County Industrial Air Park Airport, GA, United States (KBGE) 30-58N 084-38W
Apr 17, 2021 - 10:15 PM EDT / 2021.04.18 0215 UTC
Wind: from the W (270 degrees) at 6 MPH (5 KT):0
Visibility: 5 mile(s):0
Sky conditions: overcast
Weather: light rain; mist
Temperature: 62.1 F (16.7 C)
Dew Point: 61.7 F (16.5 C)
Relative Humidity: 98%
Pressure (altimeter): 29.9 in. Hg (1012 hPa)
ob: KBGE 180215Z AUTO 27005KT 5SM -RA BR OVC004 17/16 A2990 RMK AO2 T01670165
cycle: 2

Station Type Date Time Source
KBGE TAF UTC NOAA

Error!

Example: see airport list